createdAt,value
2023-03-29T00:02:35.358Z,96752.69
2023-03-29T00:05:08.562Z,96775.44
2023-03-29T00:08:02.465Z,96764.13
2023-03-29T00:10:37.451Z,96746.44
2023-03-29T00:13:17.818Z,96786.69
2023-03-29T00:15:48.836Z,96754.63
2023-03-29T00:18:17.310Z,96726.78
2023-03-29T00:20:47.684Z,96737.50
2023-03-29T00:23:20.767Z,96739.69
2023-03-29T00:25:54.240Z,96728.81
2023-03-29T00:28:33.362Z,96703.25
2023-03-29T00:31:13.854Z,96719.84
2023-03-29T00:33:44.574Z,96736.28
2023-03-29T00:36:17.310Z,96719.59
2023-03-29T00:38:48.063Z,96729.88
2023-03-29T00:41:19.589Z,96739.09
2023-03-29T00:43:56.119Z,96709.56
2023-03-29T00:46:30.415Z,96737.97
2023-03-29T00:49:05.449Z,96732.91
2023-03-29T00:51:41.098Z,96689.78
2023-03-29T00:54:16.382Z,96722.97
2023-03-29T00:57:08.386Z,96728.22
2023-03-29T00:59:42.842Z,96715.53
2023-03-29T01:02:17.989Z,96709.81
2023-03-29T01:04:54.129Z,96696.00
2023-03-29T01:07:32.702Z,96565.94
2023-03-29T01:10:12.641Z,96693.53
2023-03-29T01:12:59.409Z,96659.84
2023-03-29T01:15:33.754Z,96691.97
2023-03-29T01:18:05.492Z,96692.09
2023-03-29T01:20:51.441Z,96685.81
2023-03-29T01:23:44.185Z,96679.69
2023-03-29T01:26:19.818Z,96652.72
2023-03-29T01:29:02.132Z,96647.53
2023-03-29T01:31:45.798Z,96658.13
2023-03-29T01:34:20.471Z,96667.88
2023-03-29T01:36:54.772Z,96636.00
2023-03-29T01:39:23.837Z,96656.75
2023-03-29T01:42:01.160Z,96657.69
2023-03-29T01:44:34.106Z,96659.94
2023-03-29T01:47:12.943Z,96645.22
2023-03-29T01:49:52.556Z,96641.81
2023-03-29T01:52:24.506Z,96621.78
2023-03-29T01:55:08.167Z,96617.38
2023-03-29T01:57:38.064Z,96619.66
2023-03-29T02:00:16.302Z,96610.63
2023-03-29T02:02:48.082Z,96611.31
2023-03-29T02:05:17.999Z,96610.13
2023-03-29T02:07:56.902Z,96608.28
2023-03-29T02:10:27.621Z,96604.41
2023-03-29T02:12:56.123Z,96604.28
2023-03-29T02:15:28.100Z,96614.19
2023-03-29T02:17:59.246Z,96620.16
2023-03-29T02:20:30.860Z,96656.34
2023-03-29T02:23:07.551Z,96611.38
2023-03-29T02:25:38.064Z,96602.72
2023-03-29T02:28:12.254Z,96579.06
2023-03-29T02:30:49.917Z,96594.94
2023-03-29T02:33:25.223Z,96585.94
2023-03-29T02:35:59.346Z,96571.69
2023-03-29T02:38:34.800Z,96571.03
2023-03-29T02:41:23.499Z,96567.78
2023-03-29T02:43:58.075Z,96565.75
2023-03-29T02:46:31.959Z,96547.84
2023-03-29T02:49:01.795Z,96536.22
2023-03-29T02:51:42.901Z,96529.91
2023-03-29T02:54:15.118Z,96492.31
2023-03-29T02:56:48.733Z,96561.56
2023-03-29T02:59:17.991Z,96532.00
2023-03-29T03:01:50.173Z,96505.59
2023-03-29T03:04:22.324Z,96532.22
2023-03-29T03:06:55.853Z,96531.38
2023-03-29T03:09:28.970Z,96526.66
2023-03-29T03:12:00.107Z,96533.78
2023-03-29T03:14:31.922Z,96537.25
2023-03-29T03:17:04.864Z,96537.34
2023-03-29T03:19:41.800Z,96545.91
2023-03-29T03:22:12.578Z,96542.41
2023-03-29T03:24:41.698Z,96541.53
2023-03-29T03:27:11.298Z,96547.22
2023-03-29T03:29:41.992Z,96537.53
2023-03-29T03:32:13.965Z,96433.59
2023-03-29T03:34:44.188Z,96534.59
2023-03-29T03:37:16.312Z,96526.69
2023-03-29T03:39:45.176Z,96524.13
2023-03-29T03:42:17.138Z,96520.41
2023-03-29T03:44:48.824Z,96526.91
2023-03-29T03:47:31.861Z,96440.22
2023-03-29T03:50:03.404Z,96522.00
2023-03-29T03:52:34.644Z,96528.53
2023-03-29T03:55:05.558Z,96281.56
2023-03-29T03:57:37.773Z,96528.81
2023-03-29T04:00:19.913Z,96534.00
2023-03-29T04:02:51.220Z,96537.50
2023-03-29T04:05:23.473Z,96536.03
2023-03-29T04:07:58.070Z,96530.22
2023-03-29T04:10:35.937Z,96527.88
2023-03-29T04:13:10.136Z,96523.19
2023-03-29T04:15:40.083Z,96529.09
2023-03-29T04:18:10.711Z,96525.19
2023-03-29T04:20:47.878Z,96512.16
2023-03-29T04:23:17.758Z,96516.84
2023-03-29T04:26:00.169Z,96503.72
2023-03-29T04:28:30.070Z,96533.56
2023-03-29T04:31:00.888Z,96535.75
2023-03-29T04:33:34.717Z,96536.81
2023-03-29T04:36:04.355Z,96525.19
2023-03-29T04:38:37.215Z,96532.59
2023-03-29T04:41:09.218Z,96535.81
2023-03-29T04:43:40.425Z,96529.41
2023-03-29T04:46:18.453Z,96519.66
2023-03-29T04:48:55.176Z,96267.44
2023-03-29T04:51:25.741Z,96497.84
2023-03-29T04:53:55.355Z,96524.19
2023-03-29T04:56:26.509Z,96531.03
2023-03-29T04:58:58.654Z,96530.00
2023-03-29T05:01:51.859Z,96528.69
2023-03-29T05:04:21.925Z,96521.53
2023-03-29T05:06:54.038Z,96518.34
2023-03-29T05:09:26.973Z,96527.63
2023-03-29T05:12:02.576Z,96534.81
2023-03-29T05:14:36.726Z,96542.50
2023-03-29T05:17:09.177Z,96540.06
2023-03-29T05:19:50.862Z,96538.22
2023-03-29T05:22:19.554Z,96534.53
2023-03-29T05:24:55.372Z,96544.59
2023-03-29T05:27:29.278Z,96536.13
2023-03-29T05:30:11.156Z,96509.34
2023-03-29T05:32:53.380Z,96535.56
2023-03-29T05:35:24.729Z,96540.34
2023-03-29T05:37:56.827Z,96538.25
2023-03-29T05:40:27.274Z,96528.69
2023-03-29T05:43:01.966Z,96512.28
2023-03-29T05:45:35.864Z,96545.91
2023-03-29T05:48:05.672Z,96541.16
2023-03-29T05:50:39.390Z,96542.56
2023-03-29T05:53:15.192Z,96496.53
2023-03-29T05:55:48.473Z,96464.16
2023-03-29T05:58:25.049Z,96492.47
2023-03-29T06:00:57.887Z,96550.84
2023-03-29T06:03:29.894Z,96540.59
2023-03-29T06:06:02.426Z,96550.13
2023-03-29T06:08:31.583Z,96548.53
2023-03-29T06:11:05.188Z,96546.97
2023-03-29T06:13:39.131Z,96536.91
2023-03-29T06:16:10.572Z,96542.22
2023-03-29T06:18:44.754Z,96533.72
2023-03-29T06:21:17.413Z,96543.28
2023-03-29T06:23:48.771Z,96545.94
2023-03-29T06:26:25.444Z,96557.59
2023-03-29T06:28:55.631Z,96559.44
2023-03-29T06:31:27.914Z,96558.13
2023-03-29T06:34:00.144Z,96545.84
2023-03-29T06:39:33.497Z,96541.06
2023-03-29T06:42:20.233Z,96551.38
2023-03-29T06:44:49.592Z,96543.66
2023-03-29T06:47:22.225Z,96543.66
2023-03-29T06:49:57.349Z,96539.41
2023-03-29T06:52:27.818Z,96527.38
2023-03-29T06:54:56.088Z,96565.53
2023-03-29T06:57:24.883Z,96565.53
2023-03-29T06:59:55.206Z,96494.78
2023-03-29T07:02:26.033Z,96558.66
2023-03-29T07:05:12.464Z,96572.44
2023-03-29T07:07:57.537Z,96581.72
2023-03-29T07:10:34.821Z,96578.78
2023-03-29T07:13:04.071Z,96345.63
2023-03-29T07:15:39.105Z,96584.66
2023-03-29T07:18:13.715Z,96541.19
2023-03-29T07:20:42.648Z,96575.28
2023-03-29T07:23:21.407Z,96576.13
2023-03-29T07:25:51.922Z,96578.75
2023-03-29T07:28:20.965Z,96592.00
2023-03-29T07:30:51.928Z,96591.31
2023-03-29T07:33:22.783Z,96584.66
2023-03-29T07:35:53.112Z,96593.03
2023-03-29T07:38:31.285Z,96584.69
2023-03-29T07:41:01.330Z,96583.84
2023-03-29T07:43:30.428Z,96598.41
2023-03-29T07:46:02.296Z,96610.88
2023-03-29T07:48:31.421Z,96595.31
2023-03-29T07:51:00.047Z,96597.56
2023-03-29T07:53:31.038Z,96587.84
2023-03-29T07:56:00.266Z,96614.56
2023-03-29T07:58:38.858Z,96605.66
2023-03-29T08:01:08.775Z,96377.34
2023-03-29T08:03:38.258Z,96594.63
2023-03-29T08:06:10.195Z,96591.22
2023-03-29T08:08:43.467Z,96592.50
2023-03-29T08:11:11.408Z,96574.13
2023-03-29T08:13:46.363Z,96608.97
2023-03-29T08:16:16.206Z,96601.41
2023-03-29T08:18:45.551Z,96593.22
2023-03-29T08:21:27.287Z,96572.97
2023-03-29T08:24:00.865Z,96594.84
2023-03-29T08:26:35.425Z,96585.19
2023-03-29T08:29:07.575Z,96550.19
2023-03-29T08:31:37.385Z,96580.13
2023-03-29T08:34:10.879Z,96586.59
2023-03-29T08:36:40.650Z,96568.19
2023-03-29T08:39:19.637Z,96566.16
2023-03-29T08:41:58.793Z,96584.72
2023-03-29T08:44:43.373Z,96588.09
2023-03-29T08:47:19.188Z,96610.16
2023-03-29T08:49:51.616Z,96596.06
2023-03-29T08:52:27.256Z,96596.56
2023-03-29T08:55:03.436Z,96595.38
2023-03-29T08:57:47.060Z,96589.69
2023-03-29T09:00:25.822Z,96586.63
2023-03-29T09:03:17.777Z,96594.31
2023-03-29T09:05:51.825Z,96587.00
2023-03-29T09:08:23.020Z,96583.09
2023-03-29T09:11:12.588Z,96585.38
2023-03-29T09:13:49.262Z,96567.28
2023-03-29T09:16:26.878Z,96583.91
2023-03-29T09:19:08.582Z,96584.41
2023-03-29T09:21:46.992Z,96569.84
2023-03-29T09:24:35.309Z,96560.88
2023-03-29T09:27:15.385Z,96567.00
2023-03-29T09:29:55.864Z,96572.53
2023-03-29T09:32:26.923Z,96539.84
2023-03-29T09:35:01.793Z,96558.50
2023-03-29T09:37:36.222Z,96559.00
2023-03-29T09:40:17.930Z,96563.06
2023-03-29T09:42:50.145Z,96556.56
2023-03-29T09:45:19.155Z,96563.59
2023-03-29T09:47:51.217Z,96557.47
2023-03-29T09:50:30.930Z,96549.56
2023-03-29T09:53:01.401Z,96519.06
2023-03-29T09:55:34.317Z,96560.66
2023-03-29T09:58:15.713Z,96522.19
2023-03-29T10:00:45.056Z,96521.47
2023-03-29T10:03:22.448Z,96507.28
2023-03-29T10:05:53.598Z,96506.13
2023-03-29T10:08:29.925Z,96537.94
2023-03-29T10:11:05.327Z,96527.81
2023-03-29T10:13:46.230Z,96545.00
2023-03-29T10:16:25.352Z,96540.00
2023-03-29T10:18:57.070Z,96498.78
2023-03-29T10:21:29.460Z,96548.13
2023-03-29T10:24:00.548Z,96499.91
2023-03-29T10:26:33.033Z,96531.13
2023-03-29T10:29:05.863Z,96519.44
2023-03-29T10:31:42.386Z,96539.97
2023-03-29T10:34:21.463Z,96536.78
2023-03-29T10:37:00.670Z,96532.75
2023-03-29T10:39:36.973Z,96509.84
2023-03-29T10:42:23.080Z,96513.91
2023-03-29T10:45:24.863Z,96511.91
2023-03-29T10:48:01.103Z,96454.63
2023-03-29T10:50:39.102Z,96504.16
2023-03-29T10:53:19.248Z,96503.53
2023-03-29T10:55:58.451Z,96493.13
2023-03-29T10:58:34.956Z,96474.16
2023-03-29T11:01:07.981Z,96484.38
2023-03-29T11:04:05.060Z,96479.25
2023-03-29T11:06:46.317Z,96484.34
2023-03-29T11:09:19.855Z,96485.31
2023-03-29T11:12:15.561Z,96491.78
2023-03-29T11:15:02.190Z,96476.72
2023-03-29T11:17:43.696Z,96475.00
2023-03-29T11:20:39.073Z,96436.06
2023-03-29T11:23:23.812Z,96472.66
2023-03-29T11:26:02.887Z,96478.53
2023-03-29T11:28:39.284Z,96468.31
2023-03-29T11:31:17.357Z,96486.41
2023-03-29T11:34:01.351Z,96482.66
2023-03-29T11:36:42.493Z,96195.06
2023-03-29T11:39:23.110Z,96282.94
2023-03-29T11:41:55.975Z,96489.19
2023-03-29T11:44:31.374Z,96486.00
2023-03-29T11:47:15.324Z,96451.56
2023-03-29T11:49:49.901Z,96485.47
2023-03-29T11:52:25.655Z,96475.41
2023-03-29T11:54:57.841Z,96469.38
2023-03-29T11:57:38.020Z,96262.59
2023-03-29T12:00:15.831Z,96467.25
2023-03-29T12:02:48.175Z,96421.75
2023-03-29T12:05:24.803Z,96454.63
2023-03-29T12:08:09.074Z,96472.38
2023-03-29T12:10:40.492Z,96476.59
2023-03-29T12:13:15.109Z,96471.03
2023-03-29T12:15:48.814Z,96472.88
2023-03-29T12:18:24.347Z,96477.44
2023-03-29T12:20:59.454Z,96484.25
2023-03-29T12:23:32.828Z,96480.38
2023-03-29T12:26:06.262Z,96484.22
2023-03-29T12:28:55.418Z,96483.50
2023-03-29T12:31:34.270Z,96492.19
2023-03-29T12:34:12.255Z,96500.66
2023-03-29T12:37:01.287Z,96486.59
2023-03-29T12:39:33.587Z,96497.63
2023-03-29T12:42:22.616Z,96512.81
2023-03-29T12:45:02.372Z,96455.38
2023-03-29T12:47:35.747Z,96447.03
2023-03-29T12:50:11.207Z,96478.38
2023-03-29T12:52:48.085Z,96475.75
2023-03-29T12:55:26.329Z,96476.69
2023-03-29T12:58:16.870Z,96465.13
2023-03-29T13:00:51.847Z,96473.63
2023-03-29T13:03:32.392Z,96489.97
2023-03-29T13:06:03.619Z,96485.28
2023-03-29T13:08:37.138Z,96503.53
2023-03-29T13:11:12.299Z,96501.03
2023-03-29T13:13:44.107Z,96456.81
2023-03-29T13:16:19.025Z,96493.81
2023-03-29T13:18:56.725Z,96479.75
2023-03-29T13:21:38.307Z,96497.44
2023-03-29T13:24:32.442Z,96483.25
2023-03-29T13:27:13.576Z,96500.34
2023-03-29T13:29:53.698Z,96511.50
2023-03-29T13:32:32.668Z,96509.28
2023-03-29T13:35:08.028Z,96464.88
2023-03-29T13:37:52.092Z,96506.69
2023-03-29T13:40:50.397Z,96513.03
2023-03-29T13:43:32.750Z,96524.28
2023-03-29T13:46:31.467Z,96471.00
2023-03-29T13:49:07.914Z,96510.66
2023-03-29T13:51:42.505Z,96430.13
2023-03-29T13:54:18.441Z,96515.69
2023-03-29T13:56:59.996Z,96509.75
2023-03-29T13:59:35.872Z,96488.56
2023-03-29T14:02:07.243Z,96471.41
2023-03-29T14:04:44.772Z,96503.16
2023-03-29T14:07:16.332Z,96480.56
2023-03-29T14:10:03.492Z,96476.69
2023-03-29T14:12:35.432Z,96481.22
2023-03-29T14:15:10.783Z,96470.84
2023-03-29T14:17:39.051Z,96457.59
2023-03-29T14:20:11.651Z,96460.91
2023-03-29T14:22:44.707Z,96443.38
2023-03-29T14:25:20.386Z,96440.44
2023-03-29T14:27:51.643Z,96447.34
2023-03-29T14:30:27.824Z,96454.31
2023-03-29T14:32:57.070Z,96440.47
2023-03-29T14:35:32.031Z,96362.31
2023-03-29T14:38:06.884Z,96445.94
2023-03-29T14:40:38.890Z,96436.50
2023-03-29T14:43:14.143Z,96434.88
2023-03-29T14:45:48.691Z,96438.94
2023-03-29T14:48:18.725Z,96432.47
2023-03-29T14:50:48.379Z,96414.75
2023-03-29T14:53:20.668Z,96422.97
2023-03-29T14:55:52.675Z,96420.16
2023-03-29T14:58:26.144Z,96422.84
2023-03-29T15:01:01.444Z,96419.47
2023-03-29T15:03:31.402Z,96410.31
2023-03-29T15:06:02.538Z,96409.84
2023-03-29T15:08:36.950Z,96402.16
2023-03-29T15:11:17.824Z,96403.03
2023-03-29T15:13:53.811Z,96400.41
2023-03-29T15:16:27.401Z,96397.53
2023-03-29T15:18:56.654Z,96402.09
2023-03-29T15:21:26.235Z,96392.16
2023-03-29T15:24:01.976Z,96346.72
2023-03-29T15:26:33.192Z,96389.69
2023-03-29T15:29:11.204Z,96381.50
2023-03-29T15:31:44.363Z,96369.25
2023-03-29T15:34:16.338Z,96383.69
2023-03-29T15:36:55.229Z,96372.22
2023-03-29T15:39:25.511Z,96368.38
2023-03-29T15:41:55.001Z,96361.31
2023-03-29T15:44:25.106Z,96364.19
2023-03-29T15:47:00.174Z,96363.84
2023-03-29T15:49:33.496Z,96356.81
2023-03-29T15:52:03.700Z,96363.25
2023-03-29T15:54:34.256Z,96356.56
2023-03-29T15:57:11.180Z,96365.19
2023-03-29T15:59:42.538Z,96368.00
2023-03-29T16:02:32.140Z,96373.19
2023-03-29T16:05:02.848Z,96373.63
2023-03-29T16:07:32.159Z,96373.72
2023-03-29T16:10:00.877Z,96374.66
2023-03-29T16:12:32.389Z,96369.88
2023-03-29T16:15:07.327Z,96374.66
2023-03-29T16:17:40.196Z,96376.69
2023-03-29T16:20:14.979Z,96368.16
2023-03-29T16:22:56.248Z,96363.16
2023-03-29T16:25:27.634Z,96366.75
2023-03-29T16:27:56.525Z,96360.16
2023-03-29T16:30:28.403Z,96343.78
2023-03-29T16:33:06.652Z,96358.69
2023-03-29T16:38:30.754Z,96349.50
2023-03-29T16:41:03.072Z,96342.38
2023-03-29T16:43:34.832Z,96321.53
2023-03-29T16:46:04.266Z,96318.78
2023-03-29T16:48:38.777Z,96341.00
2023-03-29T16:53:53.791Z,96333.44
2023-03-29T16:56:31.035Z,96336.69
2023-03-29T16:59:03.035Z,96329.56
2023-03-29T17:01:36.423Z,96319.50
2023-03-29T17:04:13.858Z,96332.34
2023-03-29T17:06:43.615Z,96347.19
2023-03-29T17:09:12.250Z,96307.16
2023-03-29T17:11:46.474Z,96330.81
2023-03-29T17:14:21.714Z,96336.06
2023-03-29T17:16:51.331Z,96333.50
2023-03-29T17:19:25.364Z,96327.25
2023-03-29T17:21:57.144Z,96325.75
2023-03-29T17:24:25.587Z,96325.34
2023-03-29T17:26:59.558Z,96320.91
2023-03-29T17:29:31.081Z,96307.59
2023-03-29T17:32:01.431Z,96303.53
2023-03-29T17:34:36.013Z,96309.22
2023-03-29T17:37:05.629Z,96309.63
2023-03-29T17:39:37.744Z,96314.34
2023-03-29T17:42:06.611Z,96311.03
2023-03-29T17:44:37.207Z,96311.81
2023-03-29T17:47:07.613Z,96304.09
2023-03-29T17:49:40.186Z,96307.69
2023-03-29T17:52:12.284Z,96308.13
2023-03-29T17:54:50.495Z,96232.22
2023-03-29T17:57:23.066Z,96304.38
2023-03-29T17:59:53.517Z,96280.56
2023-03-29T18:02:24.508Z,96302.81
2023-03-29T18:05:01.961Z,96312.53
2023-03-29T18:07:35.716Z,96302.97
2023-03-29T18:10:09.684Z,96305.78
2023-03-29T18:12:40.960Z,96301.97
2023-03-29T18:15:17.844Z,96295.09
2023-03-29T18:17:51.225Z,96306.63
2023-03-29T18:20:26.071Z,96288.78
2023-03-29T18:22:56.535Z,96311.63
2023-03-29T18:25:31.846Z,96314.91
2023-03-29T18:28:05.886Z,96279.19
2023-03-29T18:30:42.073Z,96307.16
2023-03-29T18:33:12.136Z,96300.31
2023-03-29T18:35:50.737Z,96305.31
2023-03-29T18:38:26.755Z,96305.19
2023-03-29T18:40:57.799Z,96305.34
2023-03-29T18:43:26.484Z,96304.38
2023-03-29T18:45:55.856Z,96270.50
2023-03-29T18:48:24.414Z,96296.44
2023-03-29T18:50:54.989Z,96293.34
2023-03-29T18:53:23.101Z,96273.84
2023-03-29T18:55:51.736Z,96289.06
2023-03-29T18:58:26.577Z,96294.47
2023-03-29T19:01:02.641Z,96293.25
2023-03-29T19:03:32.401Z,96334.38
2023-03-29T19:06:07.298Z,96313.47
2023-03-29T19:08:40.062Z,96308.50
2023-03-29T19:11:11.877Z,96306.19
2023-03-29T19:13:42.821Z,96306.34
2023-03-29T19:16:13.713Z,96319.06
2023-03-29T19:18:45.032Z,96304.59
2023-03-29T19:21:19.051Z,96309.19
2023-03-29T19:23:53.385Z,96306.63
2023-03-29T19:26:33.769Z,96294.94
2023-03-29T19:29:02.470Z,96310.97
2023-03-29T19:31:40.215Z,96310.69
2023-03-29T19:34:11.435Z,96305.41
2023-03-29T19:36:43.811Z,96295.97
2023-03-29T19:39:16.187Z,96283.28
2023-03-29T19:41:50.457Z,96286.81
2023-03-29T19:44:21.567Z,96288.47
2023-03-29T19:46:49.491Z,96285.00
2023-03-29T19:49:20.615Z,96285.09
2023-03-29T19:51:55.044Z,96265.63
2023-03-29T19:54:23.984Z,96265.47
2023-03-29T19:56:52.854Z,96259.56
2023-03-29T19:59:26.624Z,96220.72
2023-03-29T20:01:57.678Z,96260.22
2023-03-29T20:04:30.680Z,96224.78
2023-03-29T20:07:04.340Z,96250.03
2023-03-29T20:09:45.226Z,96260.50
2023-03-29T20:12:18.022Z,96258.53
2023-03-29T20:14:47.871Z,96241.63
2023-03-29T20:17:20.410Z,96246.59
2023-03-29T20:19:51.585Z,96229.16
2023-03-29T20:22:26.306Z,96236.84
2023-03-29T20:24:54.727Z,96234.25
2023-03-29T20:27:28.256Z,96224.31
2023-03-29T20:29:56.841Z,96230.59
2023-03-29T20:32:27.900Z,96228.94
2023-03-29T20:34:58.002Z,96230.78
2023-03-29T20:37:30.724Z,96233.38
2023-03-29T20:39:59.442Z,96224.41
2023-03-29T20:42:32.760Z,96230.47
2023-03-29T20:45:03.492Z,96218.19
2023-03-29T20:47:32.743Z,96217.31
2023-03-29T20:50:09.098Z,96203.66
2023-03-29T20:52:41.021Z,96192.63
2023-03-29T20:55:13.303Z,96154.47
2023-03-29T20:57:43.808Z,96192.59
2023-03-29T21:00:15.269Z,96210.31
2023-03-29T21:02:46.912Z,96208.13
2023-03-29T21:05:16.071Z,96207.50
2023-03-29T21:07:48.435Z,96209.13
2023-03-29T21:10:18.030Z,96211.78
2023-03-29T21:12:46.660Z,96201.03
2023-03-29T21:15:18.362Z,96198.25
2023-03-29T21:17:57.804Z,96179.47
2023-03-29T21:20:25.825Z,96154.06
2023-03-29T21:22:55.404Z,96185.84
2023-03-29T21:25:25.144Z,96173.66
2023-03-29T21:28:00.602Z,96163.34
2023-03-29T21:30:35.204Z,96168.59
2023-03-29T21:33:06.710Z,96151.41
2023-03-29T21:35:39.073Z,96157.28
2023-03-29T21:38:12.755Z,96137.97
2023-03-29T21:40:46.081Z,96156.34
2023-03-29T21:43:31.125Z,96150.94
2023-03-29T21:46:12.948Z,96150.97
2023-03-29T21:48:42.163Z,96144.06
2023-03-29T21:51:15.757Z,96142.31
2023-03-29T21:53:47.413Z,96156.88
2023-03-29T21:56:21.310Z,96148.31
2023-03-29T21:58:50.210Z,96146.94
2023-03-29T22:01:20.415Z,96147.59
2023-03-29T22:03:53.373Z,96143.72
2023-03-29T22:06:26.498Z,96151.84
2023-03-29T22:09:01.062Z,96156.88
2023-03-29T22:11:30.188Z,95868.00
2023-03-29T22:14:00.918Z,96029.19
2023-03-29T22:16:31.630Z,96131.63
2023-03-29T22:19:00.051Z,96137.16
2023-03-29T22:21:31.301Z,95951.28
2023-03-29T22:24:02.933Z,96108.56
2023-03-29T22:26:36.332Z,96152.34
2023-03-29T22:29:07.015Z,96104.81
2023-03-29T22:31:46.289Z,96143.78
2023-03-29T22:34:16.013Z,96153.06
2023-03-29T22:36:46.482Z,96079.22
2023-03-29T22:39:17.128Z,96152.69
2023-03-29T22:41:48.298Z,96147.63
2023-03-29T22:44:19.268Z,96146.16
2023-03-29T22:46:48.849Z,96154.34
2023-03-29T22:49:19.636Z,96155.03
2023-03-29T22:51:54.273Z,96158.75
2023-03-29T22:54:25.897Z,96151.50
2023-03-29T22:57:12.994Z,96160.47
2023-03-29T22:59:41.257Z,96082.41
2023-03-29T23:02:12.379Z,96144.63
2023-03-29T23:04:42.210Z,96143.03
2023-03-29T23:07:15.982Z,96141.06
2023-03-29T23:09:48.234Z,96139.47
2023-03-29T23:12:22.364Z,96141.06
2023-03-29T23:14:53.292Z,96144.91
2023-03-29T23:17:27.206Z,96129.41
2023-03-29T23:19:58.496Z,96136.72
2023-03-29T23:22:32.194Z,96136.03
2023-03-29T23:25:09.754Z,96108.78
2023-03-29T23:27:39.529Z,96138.78
2023-03-29T23:30:13.337Z,96137.09
2023-03-29T23:32:43.269Z,96142.66
2023-03-29T23:35:18.285Z,96152.94
2023-03-29T23:37:47.014Z,96142.59
2023-03-29T23:40:23.816Z,96146.78
2023-03-29T23:42:53.447Z,96118.72
2023-03-29T23:45:22.277Z,96138.19
2023-03-29T23:47:52.255Z,96131.19
2023-03-29T23:50:29.690Z,96139.28
2023-03-29T23:53:05.522Z,96142.44
2023-03-29T23:55:41.300Z,96105.72
2023-03-29T23:58:13.961Z,96139.28
